createdAt,value
2023-02-03T00:00:38.181Z,100.00
2023-02-03T00:03:23.745Z,100.00
2023-02-03T00:06:09.446Z,100.00
2023-02-03T00:08:59.449Z,100.00
2023-02-03T00:11:44.805Z,100.00
2023-02-03T00:14:30.259Z,100.00
2023-02-03T00:17:15.527Z,100.00
2023-02-03T00:20:01.225Z,100.00
2023-02-03T00:22:46.829Z,100.00
2023-02-03T00:25:32.548Z,100.00
2023-02-03T00:28:18.434Z,100.00
2023-02-03T00:31:04.196Z,100.00
2023-02-03T00:33:55.501Z,100.00
2023-02-03T00:36:42.977Z,100.00
2023-02-03T00:39:28.849Z,100.00
2023-02-03T00:42:14.183Z,100.00
2023-02-03T00:44:59.853Z,100.00
2023-02-03T00:47:45.564Z,100.00
2023-02-03T00:50:31.179Z,100.00
2023-02-03T00:53:16.512Z,100.00
2023-02-03T00:56:01.946Z,100.00
2023-02-03T00:58:47.538Z,100.00
2023-02-03T01:01:34.106Z,100.00
2023-02-03T01:04:19.655Z,100.00
2023-02-03T01:07:05.428Z,100.00
2023-02-03T01:09:51.106Z,100.00
2023-02-03T01:12:36.931Z,100.00
2023-02-03T01:15:22.599Z,100.00
2023-02-03T01:18:08.296Z,100.00
2023-02-03T01:20:53.726Z,100.00
2023-02-03T01:23:39.561Z,100.00
2023-02-03T01:26:25.416Z,100.00
2023-02-03T01:29:11.134Z,100.00
2023-02-03T01:31:56.869Z,100.00
2023-02-03T01:34:42.568Z,100.00
2023-02-03T01:37:28.183Z,100.00
2023-02-03T01:40:13.844Z,100.00
2023-02-03T01:42:59.599Z,100.00
2023-02-03T01:45:45.901Z,100.00
2023-02-03T01:48:33.316Z,100.00
2023-02-03T01:51:20.292Z,100.00
2023-02-03T01:54:08.960Z,100.00
2023-02-03T01:56:59.201Z,100.00
2023-02-03T01:59:45.882Z,100.00
2023-02-03T02:02:33.022Z,100.00
2023-02-03T02:05:35.966Z,100.00
2023-02-03T02:08:23.597Z,100.00
2023-02-03T02:11:09.716Z,100.00
2023-02-03T02:13:58.980Z,100.00
2023-02-03T02:16:59.208Z,100.00
2023-02-03T02:20:20.851Z,100.00
2023-02-03T02:23:42.557Z,100.00
2023-02-03T02:26:48.280Z,100.00
2023-02-03T02:30:05.445Z,100.00
2023-02-03T02:33:28.244Z,100.00
2023-02-03T02:36:28.516Z,100.00
2023-02-03T02:39:23.155Z,100.00
2023-02-03T02:42:33.658Z,100.00
2023-02-03T02:45:30.287Z,100.00
2023-02-03T02:48:29.449Z,100.00
2023-02-03T02:51:16.324Z,100.00
2023-02-03T02:54:07.182Z,100.00
2023-02-03T02:56:58.547Z,100.00
2023-02-03T02:59:46.084Z,100.00
2023-02-03T03:02:36.209Z,100.00
2023-02-03T03:05:21.664Z,100.00
2023-02-03T03:08:10.045Z,100.00
2023-02-03T03:10:58.415Z,100.00
2023-02-03T03:13:51.937Z,100.00
2023-02-03T03:16:43.004Z,100.00
2023-02-03T03:19:34.592Z,100.00
2023-02-03T03:22:24.884Z,100.00
2023-02-03T03:25:16.540Z,100.00
2023-02-03T03:28:08.759Z,100.00
2023-02-03T03:30:54.505Z,100.00
2023-02-03T03:33:40.470Z,100.00
2023-02-03T03:36:45.990Z,100.00
2023-02-03T03:39:55.035Z,100.00
2023-02-03T03:42:58.956Z,100.00
2023-02-03T03:45:51.656Z,100.00
2023-02-03T03:48:47.766Z,100.00
2023-02-03T03:51:53.095Z,100.00
2023-02-03T03:54:41.219Z,100.00
2023-02-03T03:58:03.977Z,100.00
2023-02-03T04:00:50.618Z,100.00
2023-02-03T04:03:45.441Z,100.00
2023-02-03T04:06:30.955Z,100.00
2023-02-03T04:09:17.411Z,100.00
2023-02-03T04:12:05.980Z,100.00
2023-02-03T04:14:51.418Z,100.00
2023-02-03T04:17:36.579Z,100.00
2023-02-03T04:20:22.492Z,100.00
2023-02-03T04:23:08.622Z,100.00
2023-02-03T04:25:53.881Z,100.00
2023-02-03T04:28:39.379Z,100.00
2023-02-03T04:31:25.113Z,100.00
2023-02-03T04:34:10.604Z,100.00
2023-02-03T04:36:55.928Z,100.00
2023-02-03T04:39:41.299Z,100.00
2023-02-03T04:42:26.725Z,100.00
2023-02-03T04:45:12.606Z,100.00
2023-02-03T04:47:58.173Z,100.00
2023-02-03T04:50:43.445Z,100.00
2023-02-03T04:53:29.357Z,100.00
2023-02-03T04:56:16.337Z,100.00
2023-02-03T04:59:01.876Z,100.00
2023-02-03T05:01:47.748Z,100.00
2023-02-03T05:04:32.984Z,100.00
2023-02-03T05:07:18.553Z,100.00
2023-02-03T05:10:04.504Z,100.00
2023-02-03T05:12:49.830Z,100.00
2023-02-03T05:15:35.264Z,100.00
2023-02-03T05:18:20.735Z,100.00
2023-02-03T05:21:06.631Z,100.00
2023-02-03T05:23:52.009Z,100.00
2023-02-03T05:26:37.668Z,100.00
2023-02-03T05:29:23.129Z,100.00
2023-02-03T05:32:08.640Z,100.00
2023-02-03T05:34:54.017Z,100.00
2023-02-03T05:37:39.597Z,100.00
2023-02-03T05:40:43.865Z,100.00
2023-02-03T05:43:29.442Z,100.00
2023-02-03T05:46:15.090Z,100.00
2023-02-03T05:49:00.550Z,100.00
2023-02-03T05:51:46.852Z,100.00
2023-02-03T05:54:32.442Z,100.00
2023-02-03T05:57:19.204Z,100.00
2023-02-03T06:00:05.021Z,100.00
2023-02-03T06:02:52.617Z,100.00
2023-02-03T06:05:40.885Z,100.00
2023-02-03T06:08:28.549Z,100.00
2023-02-03T06:11:14.583Z,100.00
2023-02-03T06:14:00.383Z,100.00
2023-02-03T06:16:46.573Z,100.00
2023-02-03T06:19:32.359Z,100.00
2023-02-03T06:22:17.612Z,100.00
2023-02-03T06:25:03.452Z,100.00
2023-02-03T06:27:48.730Z,100.00
2023-02-03T06:30:34.137Z,100.00
2023-02-03T06:33:20.469Z,100.00
2023-02-03T06:36:05.985Z,100.00
2023-02-03T06:38:51.616Z,100.00
2023-02-03T06:41:37.235Z,100.00
2023-02-03T06:44:24.424Z,100.00
2023-02-03T06:47:09.814Z,100.00
2023-02-03T06:49:55.374Z,100.00
2023-02-03T06:52:41.429Z,100.00
2023-02-03T06:55:27.004Z,100.00
2023-02-03T06:58:12.649Z,100.00
2023-02-03T07:00:58.236Z,100.00
2023-02-03T07:03:43.787Z,100.00
2023-02-03T07:06:32.265Z,100.00
2023-02-03T07:09:17.721Z,100.00
2023-02-03T07:12:03.148Z,100.00
2023-02-03T07:14:48.594Z,100.00
2023-02-03T07:17:34.011Z,100.00
2023-02-03T07:20:19.539Z,100.00
2023-02-03T07:23:04.969Z,100.00
2023-02-03T07:25:50.658Z,100.00
2023-02-03T07:28:36.739Z,100.00
2023-02-03T07:31:22.234Z,100.00
2023-02-03T07:34:07.807Z,100.00
2023-02-03T07:36:53.403Z,100.00
2023-02-03T07:39:38.972Z,100.00
2023-02-03T07:42:24.599Z,100.00
2023-02-03T07:45:11.185Z,100.00
2023-02-03T07:47:56.898Z,100.00
2023-02-03T07:50:42.415Z,100.00
2023-02-03T07:53:28.065Z,100.00
2023-02-03T07:56:13.463Z,100.00
2023-02-03T07:58:59.604Z,100.00
2023-02-03T08:01:45.311Z,100.00
2023-02-03T08:04:30.929Z,100.00
2023-02-03T08:07:16.332Z,100.00
2023-02-03T08:10:02.069Z,100.00
2023-02-03T08:12:48.038Z,100.00
2023-02-03T08:15:33.831Z,100.00
2023-02-03T08:18:20.000Z,100.00
2023-02-03T08:21:05.736Z,100.00
2023-02-03T08:23:51.114Z,100.00
2023-02-03T08:26:37.272Z,100.00
2023-02-03T08:29:22.739Z,100.00
2023-02-03T08:32:12.553Z,100.00
2023-02-03T08:34:58.041Z,100.00
2023-02-03T08:37:43.596Z,100.00
2023-02-03T08:40:29.324Z,100.00
2023-02-03T08:43:14.951Z,100.00
2023-02-03T08:46:09.607Z,100.00
2023-02-03T08:48:57.032Z,100.00
2023-02-03T08:51:46.693Z,100.00
2023-02-03T08:54:32.987Z,100.00
2023-02-03T08:57:18.402Z,100.00
2023-02-03T09:00:06.085Z,100.00
2023-02-03T09:02:52.035Z,100.00
2023-02-03T09:05:37.622Z,100.00
2023-02-03T09:08:23.281Z,100.00
2023-02-03T09:11:13.696Z,100.00
2023-02-03T09:13:58.978Z,100.00
2023-02-03T09:16:44.426Z,100.00
2023-02-03T09:19:30.911Z,100.00
2023-02-03T09:22:16.297Z,100.00
2023-02-03T09:25:01.736Z,100.00
2023-02-03T09:27:47.072Z,100.00
2023-02-03T09:30:32.873Z,100.00
2023-02-03T09:33:18.577Z,100.00
2023-02-03T09:36:05.974Z,100.00
2023-02-03T09:38:51.726Z,100.00
2023-02-03T09:42:08.140Z,100.00
2023-02-03T09:45:02.893Z,100.00
2023-02-03T09:47:53.983Z,100.00
2023-02-03T09:50:42.998Z,100.00
2023-02-03T09:53:35.519Z,100.00
2023-02-03T09:56:31.873Z,100.00
2023-02-03T09:59:17.211Z,100.00
2023-02-03T10:02:28.757Z,100.00
2023-02-03T10:05:36.037Z,100.00
2023-02-03T10:08:43.236Z,100.00
2023-02-03T10:12:05.027Z,100.00
2023-02-03T10:15:10.809Z,100.00
2023-02-03T10:18:04.592Z,100.00
2023-02-03T10:20:55.485Z,100.00
2023-02-03T10:23:43.769Z,100.00
2023-02-03T10:26:29.985Z,100.00
2023-02-03T10:29:34.940Z,100.00
2023-02-03T10:32:20.749Z,100.00
2023-02-03T10:35:12.493Z,100.00
2023-02-03T10:37:59.390Z,100.00
2023-02-03T10:40:45.150Z,100.00
2023-02-03T10:43:47.620Z,100.00
2023-02-03T10:46:39.492Z,100.00
2023-02-03T10:49:26.895Z,100.00
2023-02-03T10:52:26.518Z,100.00
2023-02-03T10:55:21.182Z,100.00
2023-02-03T10:58:15.910Z,100.00
2023-02-03T11:01:09.076Z,100.00
2023-02-03T11:04:06.053Z,100.00
2023-02-03T11:07:01.780Z,100.00
2023-02-03T11:09:47.370Z,96.68
2023-02-03T11:12:32.752Z,96.97
2023-02-03T11:15:18.154Z,95.53
2023-02-03T11:18:03.907Z,95.74
2023-02-03T11:20:49.458Z,96.64
2023-02-03T11:23:35.089Z,93.33
2023-02-03T11:26:27.891Z,91.38
2023-02-03T11:29:24.081Z,89.51
2023-02-03T11:32:22.981Z,86.09
2023-02-03T11:35:26.107Z,86.19
2023-02-03T11:38:30.421Z,85.70
2023-02-03T11:41:19.111Z,85.44
2023-02-03T11:44:24.532Z,84.46
2023-02-03T11:47:13.142Z,85.67
2023-02-03T11:49:58.556Z,83.41
2023-02-03T11:52:47.737Z,81.83
2023-02-03T11:55:53.521Z,84.51
2023-02-03T11:59:11.627Z,85.03
2023-02-03T12:02:35.015Z,86.38
2023-02-03T12:05:46.663Z,83.08
2023-02-03T12:08:45.047Z,81.49
2023-02-03T12:11:42.751Z,82.19
2023-02-03T12:14:36.640Z,85.46
2023-02-03T12:17:40.261Z,84.30
2023-02-03T12:20:53.785Z,84.10
2023-02-03T12:23:58.048Z,85.48
2023-02-03T12:27:24.064Z,87.03
2023-02-03T12:30:27.737Z,85.22
2023-02-03T12:33:21.153Z,90.71
2023-02-03T12:36:18.233Z,87.91
2023-02-03T12:39:30.955Z,87.71
2023-02-03T12:42:27.541Z,85.27
2023-02-03T12:45:29.949Z,83.74
2023-02-03T12:48:21.890Z,83.12
2023-02-03T12:51:16.045Z,83.92
2023-02-03T12:54:37.235Z,85.38
2023-02-03T12:57:48.749Z,84.59
2023-02-03T13:00:56.467Z,86.25
2023-02-03T13:04:15.380Z,86.85
2023-02-03T13:07:15.679Z,85.31
2023-02-03T13:10:15.806Z,82.61
2023-02-03T13:13:03.236Z,82.06
2023-02-03T13:15:52.493Z,83.77
2023-02-03T13:18:42.491Z,84.01
2023-02-03T13:21:28.931Z,82.98
2023-02-03T13:24:14.484Z,82.55
2023-02-03T13:27:35.923Z,82.68
2023-02-03T13:30:33.903Z,85.15
2023-02-03T13:33:46.339Z,84.07
2023-02-03T13:37:08.187Z,83.69
2023-02-03T13:40:21.688Z,84.44
2023-02-03T13:43:17.357Z,84.41
2023-02-03T13:46:10.953Z,84.36
2023-02-03T13:48:59.845Z,83.03
2023-02-03T13:51:46.345Z,83.55
2023-02-03T13:54:36.124Z,86.10
2023-02-03T13:57:34.444Z,84.32
2023-02-03T14:00:44.693Z,84.02
2023-02-03T14:03:29.965Z,84.18
2023-02-03T14:06:41.335Z,85.08
2023-02-03T14:09:35.870Z,85.04
2023-02-03T14:12:50.419Z,85.60
2023-02-03T14:15:36.882Z,83.50
2023-02-03T14:18:34.528Z,85.58
2023-02-03T14:21:23.544Z,86.19
2023-02-03T14:24:11.796Z,85.93
2023-02-03T14:27:00.731Z,86.25
2023-02-03T14:29:46.366Z,85.87
2023-02-03T14:32:50.612Z,88.42
2023-02-03T14:35:40.667Z,88.35
2023-02-03T14:38:32.177Z,93.96
2023-02-03T14:41:23.427Z,94.45
2023-02-03T14:44:51.914Z,92.27
2023-02-03T14:47:50.056Z,92.02
2023-02-03T14:50:43.616Z,92.17
2023-02-03T14:53:50.438Z,91.57
2023-02-03T14:57:18.522Z,90.89
2023-02-03T15:00:11.527Z,87.96
2023-02-03T15:03:13.691Z,90.14
2023-02-03T15:06:03.155Z,89.68
2023-02-03T15:08:48.918Z,90.78
2023-02-03T15:11:34.416Z,91.21
2023-02-03T15:14:28.148Z,91.31
2023-02-03T15:17:28.101Z,89.20
2023-02-03T15:20:41.458Z,92.09
2023-02-03T15:23:30.218Z,90.20
2023-02-03T15:26:23.330Z,92.67
2023-02-03T15:29:21.834Z,91.85
2023-02-03T15:32:12.198Z,92.42
2023-02-03T15:34:59.112Z,91.56
2023-02-03T15:37:51.426Z,92.37
2023-02-03T15:40:44.111Z,93.48
2023-02-03T15:43:38.828Z,93.06
2023-02-03T15:46:33.667Z,93.08
2023-02-03T15:49:25.578Z,96.99
2023-02-03T15:52:18.563Z,95.98
2023-02-03T15:55:17.740Z,95.37
2023-02-03T15:58:04.066Z,96.83
2023-02-03T16:00:56.581Z,97.89
2023-02-03T16:03:48.770Z,97.93
2023-02-03T16:06:39.064Z,100.00
2023-02-03T16:09:41.056Z,99.50
2023-02-03T16:12:33.890Z,100.00
2023-02-03T16:15:24.767Z,100.00
2023-02-03T16:18:17.554Z,100.00
2023-02-03T16:21:05.374Z,100.00
2023-02-03T16:23:51.129Z,99.03
2023-02-03T16:26:38.356Z,99.03
2023-02-03T16:29:47.941Z,100.00
2023-02-03T16:32:51.958Z,100.00
2023-02-03T16:35:55.900Z,100.00
2023-02-03T16:39:04.740Z,100.00
2023-02-03T16:42:08.889Z,100.00
2023-02-03T16:45:12.967Z,99.46
2023-02-03T16:48:17.233Z,99.17
2023-02-03T16:51:06.911Z,97.04
2023-02-03T16:53:52.312Z,96.75
2023-02-03T16:56:38.402Z,97.15
2023-02-03T16:59:24.252Z,99.58
2023-02-03T17:02:10.703Z,100.00
2023-02-03T17:04:56.482Z,100.00
2023-02-03T17:07:42.193Z,100.00
2023-02-03T17:10:27.801Z,100.00
2023-02-03T17:13:14.927Z,100.00
2023-02-03T17:16:00.758Z,100.00
2023-02-03T17:18:47.912Z,100.00
2023-02-03T17:21:33.272Z,100.00
2023-02-03T17:24:19.516Z,100.00
2023-02-03T17:27:05.031Z,100.00
2023-02-03T17:29:50.417Z,100.00
2023-02-03T17:32:35.704Z,100.00
2023-02-03T17:35:21.265Z,100.00
2023-02-03T17:38:07.271Z,100.00
2023-02-03T17:55:50.980Z,100.00
2023-02-03T17:58:36.716Z,100.00
2023-02-03T18:01:22.317Z,100.00
2023-02-03T18:04:11.540Z,100.00
2023-02-03T18:06:56.847Z,100.00
2023-02-03T18:09:42.422Z,100.00
2023-02-03T18:12:28.042Z,100.00
2023-02-03T18:15:13.971Z,100.00
2023-02-03T18:17:59.273Z,100.00
2023-02-03T18:20:44.649Z,100.00
2023-02-03T18:23:31.464Z,100.00
2023-02-03T18:26:18.796Z,100.00
2023-02-03T18:29:05.245Z,100.00
2023-02-03T18:31:50.757Z,100.00
2023-02-03T18:34:36.300Z,100.00
2023-02-03T18:37:21.997Z,100.00
2023-02-03T18:40:08.502Z,100.00
2023-02-03T18:42:56.178Z,100.00
2023-02-03T18:45:41.556Z,100.00
2023-02-03T18:48:26.788Z,100.00
2023-02-03T18:51:14.866Z,100.00
2023-02-03T18:54:00.628Z,100.00
2023-02-03T18:56:46.269Z,100.00
2023-02-03T18:59:31.846Z,100.00
2023-02-03T19:02:17.509Z,100.00
2023-02-03T19:05:02.862Z,100.00
2023-02-03T19:07:48.471Z,100.00
2023-02-03T19:10:33.985Z,100.00
2023-02-03T19:13:19.749Z,100.00
2023-02-03T19:16:06.014Z,100.00
2023-02-03T19:18:51.578Z,100.00
2023-02-03T19:21:36.960Z,100.00
2023-02-03T19:24:22.257Z,100.00
2023-02-03T19:27:07.621Z,100.00
2023-02-03T19:29:53.377Z,100.00
2023-02-03T19:32:38.920Z,100.00
2023-02-03T19:35:25.146Z,100.00
2023-02-03T19:38:10.433Z,100.00
2023-02-03T19:40:56.755Z,100.00
2023-02-03T19:43:42.407Z,100.00
2023-02-03T19:46:32.525Z,100.00
2023-02-03T19:49:18.118Z,100.00
2023-02-03T19:52:03.639Z,100.00
2023-02-03T19:54:48.899Z,100.00
2023-02-03T19:57:34.660Z,100.00
2023-02-03T20:00:20.405Z,100.00
2023-02-03T20:03:06.195Z,100.00
2023-02-03T20:05:52.983Z,100.00
2023-02-03T20:08:38.372Z,100.00
2023-02-03T20:11:24.136Z,100.00
2023-02-03T20:14:11.016Z,100.00
2023-02-03T20:16:56.707Z,100.00
2023-02-03T20:19:42.423Z,100.00
2023-02-03T20:22:27.815Z,100.00
2023-02-03T20:25:13.447Z,100.00
2023-02-03T20:28:02.325Z,100.00
2023-02-03T20:30:51.224Z,100.00
2023-02-03T20:33:36.792Z,100.00
2023-02-03T20:36:22.536Z,100.00
2023-02-03T20:39:19.523Z,100.00
2023-02-03T20:42:16.571Z,100.00
2023-02-03T20:45:02.251Z,100.00
2023-02-03T20:47:48.179Z,100.00
2023-02-03T20:50:41.947Z,100.00
2023-02-03T20:53:28.502Z,100.00
2023-02-03T20:56:16.135Z,100.00
2023-02-03T20:59:01.841Z,100.00
2023-02-03T21:01:47.670Z,100.00
2023-02-03T21:04:51.951Z,100.00
2023-02-03T21:07:38.687Z,100.00
2023-02-03T21:10:25.040Z,100.00
2023-02-03T21:13:28.579Z,100.00
2023-02-03T21:16:18.450Z,100.00
2023-02-03T21:19:03.804Z,100.00
2023-02-03T21:21:52.104Z,100.00
2023-02-03T21:24:38.728Z,100.00
2023-02-03T21:27:29.804Z,100.00
2023-02-03T21:30:30.903Z,100.00
2023-02-03T21:33:40.493Z,100.00
2023-02-03T21:36:28.904Z,100.00
2023-02-03T21:39:26.796Z,100.00
2023-02-03T21:42:42.576Z,100.00
2023-02-03T21:45:41.563Z,100.00
2023-02-03T21:48:38.221Z,100.00
2023-02-03T21:51:38.504Z,100.00
2023-02-03T21:54:27.955Z,100.00
2023-02-03T21:57:17.490Z,100.00
2023-02-03T22:00:38.846Z,100.00
2023-02-03T22:03:43.331Z,100.00
2023-02-03T22:06:46.741Z,100.00
2023-02-03T22:09:32.107Z,100.00
2023-02-03T22:12:17.797Z,100.00
2023-02-03T22:15:03.642Z,100.00
2023-02-03T22:17:49.736Z,100.00
2023-02-03T22:20:35.692Z,100.00
2023-02-03T22:23:21.449Z,100.00
2023-02-03T22:26:08.568Z,100.00
2023-02-03T22:28:54.039Z,100.00
2023-02-03T22:31:41.437Z,100.00
2023-02-03T22:34:27.159Z,100.00
2023-02-03T22:37:12.549Z,100.00
2023-02-03T22:39:58.536Z,100.00
2023-02-03T22:42:44.316Z,100.00
2023-02-03T22:45:30.113Z,100.00
2023-02-03T22:48:15.604Z,100.00
2023-02-03T22:51:01.387Z,100.00
2023-02-03T22:53:46.837Z,100.00
2023-02-03T22:56:32.243Z,100.00
2023-02-03T22:59:17.819Z,100.00
2023-02-03T23:02:03.465Z,100.00
2023-02-03T23:04:50.253Z,100.00
2023-02-03T23:07:37.176Z,100.00
2023-02-03T23:10:25.700Z,100.00
2023-02-03T23:13:11.454Z,100.00
2023-02-03T23:15:57.003Z,100.00
2023-02-03T23:18:42.537Z,100.00
2023-02-03T23:21:28.310Z,100.00
2023-02-03T23:24:13.728Z,100.00
2023-02-03T23:26:59.389Z,100.00
2023-02-03T23:29:44.981Z,100.00
2023-02-03T23:32:30.284Z,100.00
2023-02-03T23:35:34.401Z,100.00
2023-02-03T23:38:20.255Z,100.00
2023-02-03T23:41:05.664Z,100.00
2023-02-03T23:43:51.133Z,100.00
2023-02-03T23:46:36.430Z,100.00
2023-02-03T23:49:22.084Z,100.00
2023-02-03T23:52:07.682Z,100.00
2023-02-03T23:54:53.216Z,100.00
2023-02-03T23:57:39.134Z,100.00
